Latimer, Mississippi
Current Conditions -  °F | °C
As of 1:33 AM on Sunday 23 Nov 2014 (Local Time) from KBIX Reporting Station
Overcast Overcast  
Wind Chill: 63°   Ceiling: 500
Heat Index: 63°   Visibility: 7mi
Dew Point: 63°   Wind: 6mph
Humidity: 100%   Direction: 70°ENE
Pressure: 29.87"   Gusts: NA
Location:  30.418°N, 88.7558°W
Report Text: KBIX 230733Z AUTO 07005KT 7SM R03/5500FT OVC005 17/17 A2987 RMK AO2
Loading
Personal Weather Stations






























Interactive Weather Map New forecast layout! Learn more

10-Day Weather Forecast

Advertisements
Track Severe Weather on mobile